Time;durP1;ratioP1;P1;durP2;ratioP2;P2;SDS_P1;SDS_P2;PMS_P1;PMS_P2;Temp;Humidity;BMP_temperature;BMP_pressure;BME280_temperature;BME280_humidity;BME280_pressure;Samples;Min_cycle;Max_cycle;Signal;HPM_P1;HPM_P2
2023/11/03 00:00:39;;;;;;;11.97;7.57;;;;;;;10.79;95.91;98145.47;4999455;28;20222;-73
2023/11/03 00:03:08;;;;;;;8.87;7.33;;;;;;;10.79;96.23;98139.44;5000435;28;20216;-72
2023/11/03 00:05:38;;;;;;;10.13;8.43;;;;;;;10.79;95.98;98134.16;5004980;28;20201;-73
2023/11/03 00:08:05;;;;;;;9.73;8.27;;;;;;;10.78;95.26;98124.72;4998070;28;20571;-73
2023/11/03 00:10:31;;;;;;;9.50;8.30;;;;;;;10.79;95.41;98107.75;4996651;28;20206;-72
2023/11/03 00:12:57;;;;;;;10.47;8.97;;;;;;;10.77;95.67;98089.66;4997458;28;20386;-72
2023/11/03 00:15:23;;;;;;;11.00;8.00;;;;;;;10.77;95.63;98057.97;4996670;28;20202;-73
2023/11/03 00:17:50;;;;;;;11.13;8.47;;;;;;;10.78;95.23;98066.66;4998125;28;20673;-73
2023/11/03 00:20:16;;;;;;;13.27;9.57;;;;;;;10.77;95.61;98084.38;4996380;28;20205;-73
2023/11/03 00:22:44;;;;;;;12.50;9.57;;;;;;;10.77;95.91;98094.94;4998658;28;20204;-73
2023/11/03 00:25:12;;;;;;;10.07;8.23;;;;;;;10.77;95.59;98094.19;4992822;28;20673;-73
2023/11/03 00:27:39;;;;;;;13.10;8.67;;;;;;;10.78;95.20;98106.25;5000231;28;20310;-72
2023/11/03 00:30:08;;;;;;;9.67;8.43;;;;;;;10.78;95.64;98100.97;4994953;28;20298;-73
2023/11/03 00:32:35;;;;;;;9.87;8.87;;;;;;;10.77;95.15;98088.91;4991905;28;20218;-72
2023/11/03 00:35:01;;;;;;;12.53;8.20;;;;;;;10.77;95.57;98088.91;4977665;28;20229;-72
2023/11/03 00:37:27;;;;;;;8.97;7.67;;;;;;;10.76;95.73;98096.06;4997818;28;20661;-73
2023/11/03 00:39:55;;;;;;;11.03;8.73;;;;;;;10.76;95.37;98105.91;4997654;28;20758;-73
2023/11/03 00:42:21;;;;;;;9.73;8.60;;;;;;;10.75;95.41;98110.41;4999407;28;20232;-72
2023/11/03 00:44:48;;;;;;;10.73;7.80;;;;;;;10.75;95.77;98102.50;4982345;28;20209;-73
2023/11/03 00:47:14;;;;;;;8.90;7.80;;;;;;;10.75;94.99;98093.81;4981900;28;20234;-73
2023/11/03 00:49:40;;;;;;;10.50;8.33;;;;;;;10.74;94.97;98100.25;4996800;28;20603;-72
2023/11/03 00:52:07;;;;;;;9.30;8.03;;;;;;;10.72;95.56;98105.91;4994897;28;20208;-73
2023/11/03 00:54:33;;;;;;;11.10;7.97;;;;;;;10.72;95.91;98103.25;4978424;28;20215;-73
2023/11/03 00:57:01;;;;;;;12.57;8.77;;;;;;;10.72;95.54;98119.09;4981648;28;20657;-73
2023/11/03 00:59:28;;;;;;;9.90;8.87;;;;;;;10.71;95.35;98130.06;4999759;28;20221;-73
2023/11/03 01:01:54;;;;;;;9.33;8.33;;;;;;;10.72;95.59;98139.47;4980541;28;20815;-73
2023/11/03 01:04:22;;;;;;;10.93;8.93;;;;;;;10.70;95.85;98131.16;4995477;28;20296;-72
2023/11/03 01:06:48;;;;;;;12.33;9.03;;;;;;;10.70;95.80;98131.94;4978326;28;20237;-72
2023/11/03 01:09:14;;;;;;;10.83;9.23;;;;;;;10.70;94.81;98120.63;4998541;28;21139;-73
2023/11/03 01:11:41;;;;;;;16.27;9.13;;;;;;;10.69;95.20;98119.88;4985016;28;21586;-73
2023/11/03 01:14:09;;;;;;;11.67;8.73;;;;;;;10.70;95.73;98125.91;4997997;28;20202;-73
2023/11/03 01:16:38;;;;;;;10.53;9.43;;;;;;;10.69;95.29;98127.78;4981341;28;20210;-73
2023/11/03 01:19:05;;;;;;;12.60;9.40;;;;;;;10.68;95.91;98125.53;4995229;28;20231;-73
2023/11/03 01:21:31;;;;;;;11.17;9.13;;;;;;;10.67;95.45;98132.69;4996205;28;20266;-73
2023/11/03 01:23:58;;;;;;;10.60;7.93;;;;;;;10.67;95.33;98132.69;5002351;28;20206;-73
2023/11/03 01:26:25;;;;;;;13.20;8.37;;;;;;;10.67;95.15;98150.44;4987370;28;20237;-73
2023/11/03 01:28:51;;;;;;;11.50;8.83;;;;;;;10.65;95.78;98144.75;4986565;28;20268;-72
2023/11/03 01:31:21;;;;;;;13.73;9.20;;;;;;;10.64;95.80;98133.47;4978795;28;20237;-72
2023/11/03 01:33:49;;;;;;;10.43;8.17;;;;;;;10.61;95.67;98134.22;4996133;28;20803;-73
2023/11/03 01:36:16;;;;;;;10.40;8.10;;;;;;;10.59;95.44;98123.31;4994046;28;20613;-73
2023/11/03 01:38:44;;;;;;;11.87;8.80;;;;;;;10.58;95.89;98119.19;4967964;28;20234;-72
2023/11/03 01:41:12;;;;;;;10.90;8.57;;;;;;;10.56;95.76;98108.25;4971692;28;20613;-73
2023/11/03 01:43:39;;;;;;;13.43;8.67;;;;;;;10.53;95.70;98100.34;4993456;28;20209;-73
2023/11/03 01:46:06;;;;;;;11.13;7.43;;;;;;;10.52;94.90;98085.66;4978464;28;20255;-73
2023/11/03 01:48:34;;;;;;;11.77;8.87;;;;;;;10.49;95.89;98071.34;4997564;28;20229;-73
2023/11/03 01:51:02;;;;;;;11.87;9.20;;;;;;;10.48;95.46;98071.72;4978261;28;20215;-73
2023/11/03 01:53:29;;;;;;;10.83;8.03;;;;;;;10.44;95.17;98057.78;4978742;28;20743;-73
2023/11/03 01:55:56;;;;;;;10.13;8.33;;;;;;;10.42;95.62;98055.56;4992242;28;20476;-72
2023/11/03 01:58:24;;;;;;;8.70;7.67;;;;;;;10.39;95.76;98056.31;4996659;28;20313;-73
2023/11/03 02:00:50;;;;;;;9.10;8.20;;;;;;;10.36;95.71;98056.34;4978048;28;20812;-73
2023/11/03 02:03:17;;;;;;;14.27;8.70;;;;;;;10.33;94.99;98043.91;4994136;28;20208;-73
2023/11/03 02:05:46;;;;;;;11.33;8.47;;;;;;;10.30;95.06;98042.06;4996971;28;20205;-73
2023/11/03 02:08:12;;;;;;;10.00;8.13;;;;;;;10.27;95.92;98037.53;4980072;28;22626;-73
2023/11/03 02:10:42;;;;;;;10.37;8.10;;;;;;;10.24;95.66;98051.50;4993955;28;20205;-73
2023/11/03 02:13:08;;;;;;;10.57;8.43;;;;;;;10.21;95.01;98054.91;4984534;28;20222;-72
2023/11/03 02:15:34;;;;;;;9.57;8.07;;;;;;;10.18;95.49;98047.75;4977226;28;20258;-73
2023/11/03 02:18:03;;;;;;;12.90;8.43;;;;;;;10.15;95.26;98051.16;4998477;28;20705;-73
2023/11/03 02:20:29;;;;;;;9.23;7.90;;;;;;;10.12;95.81;98039.50;4978715;28;20216;-73
2023/11/03 02:22:57;;;;;;;10.50;8.10;;;;;;;10.11;95.48;98043.28;5000328;28;20489;-73
2023/11/03 02:25:23;;;;;;;10.47;8.43;;;;;;;10.08;95.54;98046.66;4990841;28;20299;-72
2023/11/03 02:27:50;;;;;;;11.40;8.27;;;;;;;10.06;95.29;98048.16;4984556;28;20244;-73
2023/11/03 02:30:17;;;;;;;9.63;7.90;;;;;;;10.04;95.29;98061.72;5002139;28;20197;-72
2023/11/03 02:32:43;;;;;;;8.77;7.70;;;;;;;10.01;95.37;98062.47;4980348;28;20204;-73
2023/11/03 02:35:09;;;;;;;10.77;8.63;;;;;;;10.00;95.34;98060.97;4998248;28;20603;-73
2023/11/03 02:37:36;;;;;;;10.37;7.93;;;;;;;9.98;95.68;98060.59;4981512;28;20211;-72
2023/11/03 02:40:04;;;;;;;10.17;7.93;;;;;;;9.96;96.06;98052.31;4993382;28;20213;-73
2023/11/03 02:42:31;;;;;;;8.43;7.43;;;;;;;9.96;95.88;98070.78;5050367;23;20245;-70
2023/11/03 02:44:58;;;;;;;10.10;7.73;;;;;;;9.94;95.97;98067.03;5069024;28;20227;-69
2023/11/03 02:47:24;;;;;;;11.43;8.13;;;;;;;9.93;96.20;98071.53;5062346;28;20230;-69
2023/11/03 02:49:50;;;;;;;8.60;7.43;;;;;;;9.93;96.02;98065.53;5052685;28;20218;-71
2023/11/03 02:52:17;;;;;;;9.33;7.03;;;;;;;9.92;96.29;98080.56;5047004;28;20241;-71
2023/11/03 02:54:43;;;;;;;11.57;7.97;;;;;;;9.90;96.19;98079.44;5047091;28;20207;-71
2023/11/03 02:57:11;;;;;;;11.17;6.93;;;;;;;9.90;96.17;98079.44;5053078;28;20418;-69
2023/11/03 02:59:37;;;;;;;10.03;8.00;;;;;;;9.88;96.53;98079.81;5048067;28;20577;-71
2023/11/03 03:02:04;;;;;;;10.37;7.13;;;;;;;9.90;97.00;98082.09;5050935;28;20227;-71
2023/11/03 03:04:32;;;;;;;11.37;8.13;;;;;;;9.87;96.72;98088.09;5047418;28;20278;-71
2023/11/03 03:06:58;;;;;;;13.57;7.73;;;;;;;9.87;96.94;98088.09;5048803;28;20214;-71
2023/11/03 03:09:25;;;;;;;11.80;7.77;;;;;;;9.84;96.56;98086.25;5050248;28;20222;-71
2023/11/03 03:11:51;;;;;;;13.70;7.63;;;;;;;9.84;96.79;98081.72;5064845;28;20277;-71
2023/11/03 03:14:19;;;;;;;14.80;8.03;;;;;;;9.84;96.24;98084.34;5044007;28;20203;-72
2023/11/03 03:16:45;;;;;;;10.00;7.80;;;;;;;9.83;96.38;98071.56;5049168;28;22165;-71
2023/11/03 03:19:12;;;;;;;9.70;6.80;;;;;;;9.83;96.87;98069.66;5047321;28;20202;-71
2023/11/03 03:21:39;;;;;;;11.47;7.60;;;;;;;9.82;96.45;98062.13;5044920;28;20215;-71
2023/11/03 03:24:06;;;;;;;10.97;7.63;;;;;;;9.82;97.12;98072.69;5048222;28;20203;-71
2023/11/03 03:26:32;;;;;;;9.27;6.77;;;;;;;9.81;97.08;98068.53;5047007;28;20545;-71
2023/11/03 03:28:58;;;;;;;12.13;7.57;;;;;;;9.80;96.66;98074.97;5051796;28;20658;-70
2023/11/03 03:31:26;;;;;;;9.00;6.70;;;;;;;9.79;96.99;98078.72;5049464;28;20214;-71
2023/11/03 03:33:52;;;;;;;11.40;7.97;;;;;;;9.78;97.45;98071.97;5031538;28;20198;-71
2023/11/03 03:36:19;;;;;;;10.93;7.17;;;;;;;9.77;97.20;98078.34;5048451;28;20292;-70
2023/11/03 03:38:45;;;;;;;13.13;7.17;;;;;;;9.76;96.94;98080.25;5050241;28;20199;-71
2023/11/03 03:41:12;;;;;;;11.30;7.20;;;;;;;9.75;97.28;98077.97;5051366;28;20610;-71
2023/11/03 03:43:39;;;;;;;9.87;7.13;;;;;;;9.75;97.79;98075.34;5049146;28;20202;-70
2023/11/03 03:46:05;;;;;;;9.40;6.77;;;;;;;9.75;97.52;98068.19;5054547;28;20285;-70
2023/11/03 03:48:33;;;;;;;8.80;6.83;;;;;;;9.74;97.86;98056.13;5049125;28;20219;-70
2023/11/03 03:50:59;;;;;;;9.67;6.87;;;;;;;9.73;97.00;98052.00;5049182;28;20246;-71
2023/11/03 03:53:26;;;;;;;10.20;6.73;;;;;;;9.71;97.32;98059.53;5047317;28;20222;-70
2023/11/03 03:55:52;;;;;;;13.83;8.03;;;;;;;9.72;97.16;98065.53;5050409;28;20894;-70
2023/11/03 03:58:19;;;;;;;9.87;6.60;;;;;;;9.70;97.12;98057.28;5050649;28;20220;-70
2023/11/03 04:00:45;;;;;;;10.77;7.30;;;;;;;9.69;96.99;98061.06;5045528;28;20207;-71
2023/11/03 04:03:11;;;;;;;9.20;7.20;;;;;;;9.67;97.77;98045.63;5050122;28;20338;-69
2023/11/03 04:05:39;;;;;;;9.40;7.23;;;;;;;9.66;97.06;98049.38;5051970;28;20681;-70
2023/11/03 04:08:06;;;;;;;10.37;7.10;;;;;;;9.65;97.45;98049.75;5050964;28;20845;-70
2023/11/03 04:10:32;;;;;;;10.37;7.37;;;;;;;9.63;97.19;98058.03;5047672;28;20365;-71
2023/11/03 04:12:59;;;;;;;9.33;7.10;;;;;;;9.61;97.20;98052.41;5053712;28;20226;-70
2023/11/03 04:15:25;;;;;;;9.07;6.70;;;;;;;9.60;97.04;98058.06;5055780;28;20206;-71
2023/11/03 04:17:51;;;;;;;10.70;7.10;;;;;;;9.57;96.52;98061.47;5053076;28;20194;-71
2023/11/03 04:20:18;;;;;;;10.53;6.77;;;;;;;9.55;97.32;98072.38;5048456;28;20217;-70
2023/11/03 04:22:45;;;;;;;11.70;7.40;;;;;;;9.54;96.95;98070.09;5050159;28;20230;-71
2023/11/03 04:25:12;;;;;;;8.67;7.17;;;;;;;9.51;97.01;98081.38;5050526;28;20207;-70
2023/11/03 04:27:39;;;;;;;9.73;7.07;;;;;;;9.50;97.00;98085.94;5043845;28;20668;-70
2023/11/03 04:30:07;;;;;;;10.17;7.50;;;;;;;9.48;97.13;98084.78;5050250;28;20687;-70
2023/11/03 04:32:33;;;;;;;9.27;7.17;;;;;;;9.47;97.44;98081.41;5047563;28;20230;-69
2023/11/03 04:35:00;;;;;;;13.57;7.70;;;;;;;9.45;97.07;98070.50;5054346;28;20210;-71
2023/11/03 04:37:26;;;;;;;12.43;8.30;;;;;;;9.43;96.77;98066.75;5049869;28;20329;-70
2023/11/03 04:39:54;;;;;;;11.23;7.90;;;;;;;9.42;97.31;98047.53;5053327;28;20254;-71
2023/11/03 04:42:20;;;;;;;13.10;8.87;;;;;;;9.42;97.48;98036.28;5052671;28;20226;-70
2023/11/03 04:44:46;;;;;;;18.63;9.17;;;;;;;9.40;97.07;98026.09;5050954;28;20217;-70
2023/11/03 04:47:13;;;;;;;14.20;9.93;;;;;;;9.39;97.00;98037.00;5052130;28;20208;-71
2023/11/03 04:49:39;;;;;;;17.00;9.80;;;;;;;9.37;97.47;98039.28;5053563;28;20222;-70
2023/11/03 04:52:05;;;;;;;16.33;10.17;;;;;;;9.35;97.08;98050.19;5055500;28;20611;-71
2023/11/03 04:54:32;;;;;;;13.67;9.10;;;;;;;9.34;97.68;98056.59;5051015;28;20580;-71
2023/11/03 04:56:59;;;;;;;13.00;9.37;;;;;;;9.32;97.03;98064.09;5053022;28;20210;-70
2023/11/03 04:59:26;;;;;;;16.83;9.07;;;;;;;9.31;97.57;98059.97;5055774;28;20291;-69
2023/11/03 05:01:54;;;;;;;11.03;7.60;;;;;;;9.31;97.41;98064.50;5049943;28;20226;-71
2023/11/03 05:04:22;;;;;;;11.40;7.07;;;;;;;9.29;97.10;98070.13;5050248;28;20211;-69
2023/11/03 05:06:48;;;;;;;13.50;7.80;;;;;;;9.28;97.42;98078.41;5046665;28;20272;-71
2023/11/03 05:09:14;;;;;;;10.33;7.00;;;;;;;9.28;97.65;98076.53;5054719;28;20699;-71
2023/11/03 05:11:42;;;;;;;10.10;7.03;;;;;;;9.28;97.81;98054.72;5048187;28;20300;-70
2023/11/03 05:14:10;;;;;;;11.80;7.77;;;;;;;9.26;97.62;98049.81;5052412;28;20282;-70
2023/11/03 05:16:36;;;;;;;10.77;6.93;;;;;;;9.25;97.63;98044.91;5049939;28;20201;-70
2023/11/03 05:19:02;;;;;;;14.33;7.10;;;;;;;9.24;97.48;98049.44;5048544;28;20206;-71
2023/11/03 05:21:29;;;;;;;11.40;7.93;;;;;;;9.23;97.67;98052.44;5049918;28;20238;-70
2023/11/03 05:23:55;;;;;;;10.30;7.20;;;;;;;9.20;97.70;98051.31;5050886;28;20195;-71
2023/11/03 05:26:23;;;;;;;14.17;8.00;;;;;;;9.19;97.91;98052.47;5052443;28;20213;-70
2023/11/03 05:28:51;;;;;;;11.97;7.97;;;;;;;9.17;97.66;98054.69;5050463;28;22466;-70
2023/11/03 05:31:19;;;;;;;12.97;8.50;;;;;;;9.15;97.40;98045.66;5049711;28;20215;-71
2023/11/03 05:33:45;;;;;;;15.10;7.87;;;;;;;9.13;97.89;98047.94;5048421;28;21237;-69
2023/11/03 05:36:12;;;;;;;13.40;7.43;;;;;;;9.10;97.40;98044.19;5049255;28;20225;-70
2023/11/03 05:38:38;;;;;;;11.13;8.30;;;;;;;9.08;97.29;98032.53;5048455;28;20564;-70
2023/11/03 05:41:05;;;;;;;11.47;7.23;;;;;;;9.05;97.42;98026.13;5050168;28;20546;-71
2023/11/03 05:43:31;;;;;;;11.27;7.40;;;;;;;9.03;97.67;98040.78;5049181;28;20603;-68
2023/11/03 05:45:58;;;;;;;9.60;7.47;;;;;;;9.00;97.57;98028.41;5049983;28;20195;-69
2023/11/03 05:48:25;;;;;;;15.37;7.30;;;;;;;8.98;97.29;98012.22;5049039;28;20229;-70
2023/11/03 05:50:52;;;;;;;8.43;6.47;;;;;;;8.94;97.21;97977.25;5046462;28;20572;-69
2023/11/03 05:53:18;;;;;;;6.37;5.27;;;;;;;8.91;97.44;97962.97;5050927;28;20233;-70
2023/11/03 05:55:44;;;;;;;7.43;5.43;;;;;;;8.89;97.37;98006.56;5043263;28;20207;-69
2023/11/03 05:58:11;;;;;;;7.93;5.93;;;;;;;8.87;97.33;98061.47;5050273;28;20227;-71
2023/11/03 06:00:38;;;;;;;7.43;6.10;;;;;;;8.82;97.10;98104.69;5046902;28;20214;-70
2023/11/03 06:03:04;;;;;;;7.83;5.70;;;;;;;8.78;97.19;98101.28;5048955;28;20226;-70
2023/11/03 06:05:33;;;;;;;11.17;5.37;;;;;;;8.75;97.20;98109.19;5047863;28;20604;-71
2023/11/03 06:08:00;;;;;;;7.83;5.57;;;;;;;8.73;97.15;98137.72;5052084;28;20210;-71
2023/11/03 06:10:27;;;;;;;6.53;5.17;;;;;;;8.71;97.60;98184.72;5051228;28;20568;-68
2023/11/03 06:12:53;;;;;;;7.77;5.47;;;;;;;8.72;98.01;98186.22;5045225;28;20225;-70
2023/11/03 06:15:19;;;;;;;7.43;4.97;;;;;;;8.73;98.07;98171.94;5047373;28;20216;-69
2023/11/03 06:17:46;;;;;;;7.83;5.60;;;;;;;8.73;98.25;98162.16;5042138;28;20231;-69
2023/11/03 06:20:12;;;;;;;6.73;5.13;;;;;;;8.73;98.19;98167.44;5050186;28;20708;-70
2023/11/03 06:22:40;;;;;;;7.47;5.27;;;;;;;8.74;98.06;98163.66;5044699;28;20232;-69
2023/11/03 06:25:07;;;;;;;8.60;5.10;;;;;;;8.75;98.07;98185.47;5048639;28;20222;-71
2023/11/03 06:27:34;;;;;;;8.13;5.03;;;;;;;8.75;97.82;98198.63;5046073;28;20516;-70
2023/11/03 06:30:00;;;;;;;7.67;5.37;;;;;;;8.75;98.43;98209.91;5047468;28;20461;-71
2023/11/03 06:32:26;;;;;;;6.50;4.70;;;;;;;8.76;97.92;98216.66;5047714;28;20228;-68
2023/11/03 06:34:53;;;;;;;12.03;5.70;;;;;;;8.77;98.31;98209.53;5049043;28;20229;-70
2023/11/03 06:37:19;;;;;;;13.87;6.27;;;;;;;8.78;98.35;98226.81;5047336;28;20201;-70
2023/11/03 06:39:50;;;;;;;9.73;6.00;;;;;;;8.80;98.40;98237.75;5042355;28;20209;-71
2023/11/03 06:42:17;;;;;;;8.10;5.03;;;;;;;8.79;98.46;98223.81;5047097;28;20311;-71
2023/11/03 06:44:42;;;;;;;7.07;5.07;;;;;;;8.83;98.45;98221.22;5047728;28;20975;-70
2023/11/03 06:47:08;;;;;;;11.63;4.87;;;;;;;8.83;98.47;98200.16;5046485;28;20401;-71
2023/11/03 06:49:35;;;;;;;5.60;4.17;;;;;;;8.84;98.39;98186.63;5045566;28;20219;-70
2023/11/03 06:52:02;;;;;;;6.57;4.63;;;;;;;8.86;98.77;98173.13;5045028;28;20288;-70
2023/11/03 06:54:28;;;;;;;8.23;4.77;;;;;;;8.87;98.99;98169.34;5050459;28;20880;-71
2023/11/03 06:56:56;;;;;;;7.40;4.17;;;;;;;8.87;98.36;98166.72;5045698;28;20916;-71
2023/11/03 06:59:22;;;;;;;5.30;4.10;;;;;;;8.85;98.34;98148.66;5049278;28;20216;-71
2023/11/03 07:01:48;;;;;;;12.10;5.07;;;;;;;8.86;98.19;98146.78;5043374;28;20235;-70
2023/11/03 07:04:15;;;;;;;12.27;6.80;;;;;;;8.85;98.07;98161.81;5047735;28;20206;-70
2023/11/03 07:06:41;;;;;;;16.57;9.17;;;;;;;8.86;98.12;98167.84;5045191;28;20530;-70
2023/11/03 07:09:09;;;;;;;12.17;7.20;;;;;;;8.86;97.92;98165.94;5046056;28;20681;-69
2023/11/03 07:11:36;;;;;;;10.20;4.80;;;;;;;8.84;98.17;98168.22;5043295;28;20323;-70
2023/11/03 07:14:05;;;;;;;8.87;4.60;;;;;;;8.86;97.99;98175.75;5046045;28;20199;-71
2023/11/03 07:16:31;;;;;;;8.27;4.40;;;;;;;8.86;97.93;98173.84;5050027;28;20641;-70
2023/11/03 07:18:57;;;;;;;7.00;4.43;;;;;;;8.88;98.18;98176.13;5049057;28;20212;-69
2023/11/03 07:21:24;;;;;;;6.37;4.00;;;;;;;8.90;98.04;98179.16;5047648;28;20245;-70
2023/11/03 07:23:50;;;;;;;8.70;4.20;;;;;;;8.90;98.09;98193.03;5044697;28;20212;-70
2023/11/03 07:26:18;;;;;;;6.70;5.00;;;;;;;8.92;98.30;98196.06;5045608;28;20288;-71
2023/11/03 07:28:45;;;;;;;7.93;4.67;;;;;;;8.94;98.23;98206.97;5044357;28;20263;-71
2023/11/03 07:31:12;;;;;;;5.07;4.20;;;;;;;8.97;98.17;98211.50;5047877;28;20469;-70
2023/11/03 07:33:40;;;;;;;6.63;4.50;;;;;;;8.99;98.41;98203.22;5042334;28;20219;-70
2023/11/03 07:36:08;;;;;;;8.67;4.70;;;;;;;9.01;98.53;98199.09;5047092;28;20710;-71
2023/11/03 07:38:35;;;;;;;6.43;4.57;;;;;;;9.04;98.74;98206.25;5044991;28;20213;-69
2023/11/03 07:41:02;;;;;;;8.30;4.70;;;;;;;9.06;98.37;98196.09;5050252;28;24335;-70
2023/11/03 07:43:29;;;;;;;8.07;6.00;;;;;;;9.09;98.78;98191.97;5050266;28;20228;-70
2023/11/03 07:45:56;;;;;;;13.67;8.40;;;;;;;9.10;98.31;98204.75;5047443;28;20210;-71
2023/11/03 07:48:23;;;;;;;14.80;7.70;;;;;;;9.12;98.56;98202.50;5045136;28;20568;-70
2023/11/03 07:50:50;;;;;;;13.60;8.50;;;;;;;9.14;98.67;98202.91;5045275;28;20224;-70
2023/11/03 07:53:16;;;;;;;13.53;8.10;;;;;;;9.19;99.01;98207.78;5051914;28;20254;-68
2023/11/03 07:55:43;;;;;;;12.70;7.13;;;;;;;9.21;98.70;98212.69;5043437;28;20207;-70
2023/11/03 07:58:09;;;;;;;11.67;6.13;;;;;;;9.24;98.39;98211.94;5047046;28;20695;-70
2023/11/03 08:00:35;;;;;;;9.93;5.33;;;;;;;9.28;98.41;98207.44;5051478;28;20203;-71
2023/11/03 08:03:04;;;;;;;9.53;5.07;;;;;;;9.32;98.60;98200.31;5049540;28;20222;-69
2023/11/03 08:05:31;;;;;;;8.37;5.10;;;;;;;9.36;98.94;98203.66;5051701;28;20604;-70
2023/11/03 08:07:58;;;;;;;16.37;5.20;;;;;;;9.41;98.42;98216.47;5047772;28;20202;-68
2023/11/03 08:10:24;;;;;;;10.43;6.20;;;;;;;9.44;98.83;98210.47;5050250;28;20221;-69
2023/11/03 08:12:53;;;;;;;12.23;7.00;;;;;;;9.50;98.51;98206.34;5051867;28;20231;-71
2023/11/03 08:15:20;;;;;;;8.50;5.23;;;;;;;9.54;98.17;98215.75;5046287;28;20265;-71
2023/11/03 08:17:46;;;;;;;9.37;6.07;;;;;;;9.60;98.15;98216.13;5046918;28;20265;-70
2023/11/03 08:20:15;;;;;;;15.10;8.43;;;;;;;9.61;98.23;98212.38;5046732;28;20210;-68
2023/11/03 08:22:44;;;;;;;11.30;7.10;;;;;;;9.64;98.02;98217.63;5051377;28;20896;-70
2023/11/03 08:25:11;;;;;;;10.30;6.40;;;;;;;9.66;97.84;98207.47;5051342;28;20750;-70
2023/11/03 08:27:38;;;;;;;7.70;5.67;;;;;;;9.69;97.66;98203.34;5047513;28;20271;-71
2023/11/03 08:30:08;;;;;;;7.43;5.10;;;;;;;9.69;97.41;98198.06;5051231;28;20798;-71
2023/11/03 08:32:35;;;;;;;4.67;3.67;;;;;;;9.69;97.19;98193.53;5046933;28;20240;-71
2023/11/03 08:35:04;;;;;;;9.97;5.50;;;;;;;9.72;97.13;98184.91;5050677;28;20670;-71
2023/11/03 08:37:31;;;;;;;6.33;4.77;;;;;;;9.73;96.82;98186.41;5051899;28;20226;-71
2023/11/03 08:39:59;;;;;;;5.27;4.37;;;;;;;9.76;96.81;98177.75;5047240;28;20207;-71
2023/11/03 08:42:26;;;;;;;10.13;5.63;;;;;;;9.81;97.48;98174.72;5052506;28;20659;-71
2023/11/03 08:44:53;;;;;;;13.97;6.77;;;;;;;9.84;97.08;98178.50;5044239;28;20217;-71
2023/11/03 08:47:19;;;;;;;9.67;6.77;;;;;;;9.88;97.42;98176.63;5048496;28;20225;-71
2023/11/03 08:49:46;;;;;;;9.30;5.80;;;;;;;9.89;96.70;98186.75;5050943;28;20693;-70
2023/11/03 08:52:12;;;;;;;9.10;5.40;;;;;;;9.92;97.25;98183.38;5048985;28;20234;-71
2023/11/03 08:54:39;;;;;;;12.50;5.87;;;;;;;9.96;97.05;98183.38;5049614;28;20321;-70
2023/11/03 08:57:09;;;;;;;5.13;3.97;;;;;;;9.99;96.26;98185.25;5049461;28;20290;-70
2023/11/03 08:59:35;;;;;;;10.17;4.60;;;;;;;10.01;96.65;98188.25;5051648;28;20203;-70
2023/11/03 09:02:02;;;;;;;10.57;4.70;;;;;;;10.02;96.23;98195.03;5047744;28;20304;-70
2023/11/03 09:04:28;;;;;;;7.57;4.90;;;;;;;10.04;95.86;98209.38;5052632;28;20400;-70
2023/11/03 09:06:54;;;;;;;7.37;3.37;;;;;;;10.07;96.45;98205.22;5049338;28;20677;-70
2023/11/03 09:09:22;;;;;;;8.87;4.17;;;;;;;10.10;96.31;98204.47;5052309;28;20206;-71
2023/11/03 09:11:48;;;;;;;8.73;3.97;;;;;;;10.13;95.56;98199.19;5043861;28;20260;-70
2023/11/03 09:14:16;;;;;;;5.90;4.00;;;;;;;10.16;95.80;98206.38;5048052;28;20205;-70
2023/11/03 09:16:42;;;;;;;7.47;3.67;;;;;;;10.19;95.52;98208.22;5048719;28;20343;-68
2023/11/03 09:19:08;;;;;;;7.60;4.23;;;;;;;10.21;95.66;98195.44;5050156;28;20223;-71
2023/11/03 09:21:35;;;;;;;6.50;3.60;;;;;;;10.23;95.01;98201.06;5050112;28;20227;-71
2023/11/03 09:24:02;;;;;;;6.73;3.40;;;;;;;10.25;95.27;98214.63;5047318;28;20322;-71
2023/11/03 09:26:28;;;;;;;5.77;3.10;;;;;;;10.29;95.09;98218.00;5050533;28;20209;-70
2023/11/03 09:28:56;;;;;;;5.57;3.13;;;;;;;10.30;95.27;98205.59;5052626;28;20213;-71
2023/11/03 09:31:23;;;;;;;8.10;3.93;;;;;;;10.32;94.69;98203.31;5052552;28;20624;-70
2023/11/03 09:33:50;;;;;;;3.57;2.23;;;;;;;10.34;94.31;98208.94;5046029;28;20743;-71
2023/11/03 09:36:16;;;;;;;5.97;2.90;;;;;;;10.35;94.29;98208.56;5051204;28;20211;-71
2023/11/03 09:38:44;;;;;;;4.60;2.10;;;;;;;10.36;93.34;98202.16;5049797;28;20203;-69
2023/11/03 09:41:12;;;;;;;4.43;2.20;;;;;;;10.36;93.97;98198.78;5049527;28;20694;-70
2023/11/03 09:43:40;;;;;;;4.23;2.43;;;;;;;10.37;93.32;98185.22;5048685;28;20218;-71
2023/11/03 09:46:06;;;;;;;6.50;2.13;;;;;;;10.36;93.19;98183.69;5047899;28;20211;-71
2023/11/03 09:48:35;;;;;;;5.43;2.13;;;;;;;10.35;92.44;98190.09;5051260;28;20662;-71
2023/11/03 09:51:02;;;;;;;5.87;2.80;;;;;;;10.35;92.06;98189.38;5046615;28;20599;-71
2023/11/03 09:53:30;;;;;;;15.63;1.97;;;;;;;10.34;92.05;98190.47;5049585;28;20227;-71
2023/11/03 09:55:59;;;;;;;11.37;2.90;;;;;;;10.33;92.37;98186.34;5048139;28;20689;-71
2023/11/03 09:58:27;;;;;;;7.50;2.30;;;;;;;10.32;92.28;98177.69;5049449;28;20731;-71
2023/11/03 10:00:53;;;;;;;4.90;2.40;;;;;;;10.32;92.40;98180.34;5044817;28;20219;-70
2023/11/03 10:03:20;;;;;;;8.23;2.07;;;;;;;10.32;92.89;98184.84;5048758;28;20827;-71
2023/11/03 10:05:48;;;;;;;3.17;1.60;;;;;;;10.30;91.51;98189.75;5045119;28;20591;-71
2023/11/03 10:08:17;;;;;;;6.57;2.33;;;;;;;10.31;92.16;98189.34;5050808;28;20225;-71
2023/11/03 10:10:46;;;;;;;4.47;2.13;;;;;;;10.30;91.74;98198.41;5044842;28;20642;-71
2023/11/03 10:13:15;;;;;;;5.73;2.03;;;;;;;10.33;91.82;98197.66;5048452;28;20231;-71
2023/11/03 10:15:43;;;;;;;4.03;1.57;;;;;;;10.30;92.33;98190.50;5051930;28;20371;-71
2023/11/03 10:18:09;;;;;;;6.57;1.70;;;;;;;10.30;91.55;98195.78;5048547;28;20288;-71
2023/11/03 10:20:36;;;;;;;3.77;1.50;;;;;;;10.31;90.96;98191.25;5049426;28;20195;-70
2023/11/03 10:23:05;;;;;;;6.53;1.30;;;;;;;10.28;91.11;98194.66;5044479;28;20235;-71
2023/11/03 10:25:32;;;;;;;5.63;2.10;;;;;;;10.28;91.50;98192.00;5047737;28;20546;-70
2023/11/03 10:28:01;;;;;;;3.67;1.57;;;;;;;10.28;91.31;98194.66;5047948;28;20212;-70
2023/11/03 10:30:29;;;;;;;6.70;1.60;;;;;;;10.27;91.71;98199.19;5048851;28;20215;-71
2023/11/03 10:32:56;;;;;;;5.97;1.77;;;;;;;10.27;91.11;98206.34;5048172;28;20726;-72
2023/11/03 10:35:23;;;;;;;9.33;2.33;;;;;;;10.27;90.71;98199.19;5049636;28;20278;-69
2023/11/03 10:37:49;;;;;;;2.97;1.63;;;;;;;10.27;91.17;98198.41;5048585;28;20208;-70
2023/11/03 10:40:17;;;;;;;5.47;1.87;;;;;;;10.26;91.24;98189.75;5046659;28;20208;-71
2023/11/03 10:42:48;;;;;;;7.97;1.80;;;;;;;10.25;90.95;98193.53;5049763;28;20317;-70
2023/11/03 10:45:15;;;;;;;2.40;1.30;;;;;;;10.25;91.15;98198.78;5048851;28;20211;-71
2023/11/03 10:47:51;;;;;;;7.73;2.27;;;;;;;10.25;90.60;98190.16;5052412;28;20662;-68
2023/11/03 10:50:20;;;;;;;4.80;1.40;;;;;;;10.24;90.14;98186.75;5048586;28;20698;-71
2023/11/03 10:53:09;;;;;;;8.20;1.70;;;;;;;10.23;90.43;98187.88;5045534;28;20240;-71
2023/11/03 10:55:40;;;;;;;3.37;1.40;;;;;;;10.24;91.08;98201.84;5049477;28;20436;-71
2023/11/03 10:58:08;;;;;;;9.47;2.30;;;;;;;10.23;90.53;98195.03;5046468;28;20669;-70
2023/11/03 11:00:42;;;;;;;4.20;2.53;;;;;;;10.22;90.31;98190.91;5053319;28;20202;-71
2023/11/03 11:03:15;;;;;;;3.13;1.50;;;;;;;10.22;91.32;98193.53;5053243;28;20222;-71
2023/11/03 11:05:48;;;;;;;5.60;1.67;;;;;;;10.23;90.92;98190.53;5051462;28;20289;-69
2023/11/03 11:08:17;;;;;;;5.80;1.60;;;;;;;10.22;91.12;98191.66;5049642;28;20867;-71
2023/11/03 11:10:46;;;;;;;3.37;1.53;;;;;;;10.22;91.18;98196.94;5051466;28;20214;-71
2023/11/03 11:13:15;;;;;;;4.17;1.67;;;;;;;10.23;90.77;98200.31;5047033;28;20227;-69
2023/11/03 11:15:58;;;;;;;6.70;3.13;;;;;;;10.22;90.52;98198.81;5043830;28;20214;-70
2023/11/03 11:18:26;;;;;;;6.57;3.70;;;;;;;10.23;91.30;98195.78;5040916;28;20209;-71
2023/11/03 11:20:54;;;;;;;5.77;2.37;;;;;;;10.24;90.33;98191.28;5048122;28;20751;-69
2023/11/03 11:23:23;;;;;;;6.43;1.50;;;;;;;10.24;89.91;98193.91;5049146;28;20223;-70
2023/11/03 11:25:51;;;;;;;7.77;1.67;;;;;;;10.24;89.83;98192.03;5044006;28;20216;-70
2023/11/03 11:28:35;;;;;;;3.93;1.63;;;;;;;10.25;90.54;98184.88;5046592;28;20225;-69
2023/11/03 11:31:37;;;;;;;6.53;2.30;;;;;;;10.26;89.85;98187.09;5053553;28;20223;-70
2023/11/03 11:34:04;;;;;;;6.10;2.07;;;;;;;10.27;90.31;98185.22;5045079;28;20212;-69